Latest Weather Observations for Yulara

IDD60801

Issued at 12:21 pm CST Friday 17 September 2021 (issued every 10 minutes, with the page automatically refreshed every 10 minutes)

About weather observations | Map of weather stations | Latest weather observations for NT | Other Formats
Station Details ID: 015635 Name: YULARA AIRPORT Lat: -25.19 Lon: 130.97 Height: 492.0 m
Data from the previous 72 hours. | See also: Recent months at Yulara
Date/Time
CST
Temp
°C
App
Temp
°C
Dew
Point
°C
Rel
Hum
%
Delta-T
°C
Wind Press
QNH
hPa
Press
MSL
hPa
Rain since
9am
mm
Dir  Spd
km/h
Gust
km/h
Spd
kts
Gust
kts
17/12:00pm 26.4 23.3 7.4 30 10.3 S 13 28 7 15 1015.1 1013.3 0.0
17/11:30am 25.3 22.1 8.3 34 9.3 SSW 15 24 8 13 1015.3 1013.5 0.0
17/11:00am 24.5 20.7 8.9 37 8.6 SSW 19 24 10 13 1015.4 1013.6 0.0
17/10:30am 23.4 20.2 10.1 43 7.5 S 17 20 9 11 1015.7 1013.9 0.0
17/10:00am 22.7 20.2 9.8 44 7.2 S 13 19 7 10 1016.0 1014.2 0.0
17/09:30am 22.3 19.8 9.8 45 6.9 SSE 13 19 7 10 1016.1 1014.3 0.0
17/09:00am 21.7 20.1 11.7 53 5.7 SE 11 13 6 7 1015.4 1013.6 2.0
17/08:30am 22.0 20.9 13.1 57 5.2 ESE 11 17 6 9 1015.6 1013.8 2.0
17/08:00am 19.0 17.6 14.5 75 2.7 E 15 19 8 10 1015.0 1013.2 2.0
17/07:41am 19.1 18.5 13.5 70 3.3 NNE 9 19 5 10 1017.1 1015.3 1.6
17/07:30am 19.5 18.4 11.8 61 4.4 SSE 9 17 5 9 1014.9 1013.1 1.6
17/07:25am 19.6 18.0 11.6 60 4.5 SE 11 17 6 9 1014.3 1012.5 1.6
17/07:04am 20.2 19.7 13.9 67 3.7 SSW 9 13 5 7 1013.2 1011.4 1.4
17/07:00am 20.1 20.0 14.9 72 3.1 SSW 9 13 5 7 1013.3 1011.5 1.2
17/06:30am 20.2 20.2 15.2 73 3.0 SSW 9 15 5 8 1011.9 1010.1 1.2
17/06:00am 21.0 20.0 14.6 67 3.8 S 13 19 7 10 1011.2 1009.4 1.2
17/05:41am 21.3 19.8 15.2 68 3.7 W 17 28 9 15 1011.6 1009.8 1.2
17/05:30am 20.7 18.8 15.7 73 3.0 WSW 20 32 11 17 1011.9 1010.1 1.2
17/05:22am 21.6 19.2 14.3 63 4.4 SW 20 32 11 17 1011.9 1010.1 0.6
17/05:00am 24.9 20.4 11.5 43 7.7 SW 26 37 14 20 1010.6 1008.7 0.0
17/04:30am 25.9 21.3 10.9 39 8.6 W 26 37 14 20 1010.7 1008.8 0.0
17/04:00am 26.0 22.6 10.6 38 8.8 WSW 19 26 10 14 1010.2 1008.4 0.0
17/03:30am 25.8 20.9 11.2 40 8.4 WSW 28 41 15 22 1010.1 1008.3 0.0
17/03:00am 26.4 21.7 10.5 37 9.1 W 26 41 14 22 1011.0 1009.1 0.0
17/02:30am 26.9 22.4 10.2 35 9.5 WSW 24 39 13 21 1011.2 1009.4 0.0
17/02:00am 27.5 24.3 9.8 33 10.1 W 17 26 9 14 1011.7 1009.9 0.0
17/01:30am 28.1 24.1 8.9 30 10.8 WNW 20 28 11 15 1012.2 1010.4 0.0
17/01:00am 27.5 23.1 8.9 31 10.4 NW 22 30 12 16 1012.5 1010.6 0.0
17/12:30am 26.2 24.4 9.5 35 9.4 WNW 9 13 5 7 1012.5 1010.6 0.0
17/12:00am 26.4 24.6 9.3 34 9.6 WNW 9 15 5 8 1012.3 1010.5 0.0
 
Date/Time
CST
Temp
°C
App
Temp
°C
Dew
Point
°C
Rel
Hum
%
Delta-T
°C
Wind Press
QNH
hPa
Press
MSL
hPa
Rain since
9am
mm
Dir  Spd
km/h
Gust
km/h
Spd
kts
Gust
kts
16/11:30pm 25.7 25.0 8.7 34 9.4 NE 2 6 1 3 1012.2 1010.4 0.0
16/11:00pm 26.5 24.6 8.9 33 9.8 E 9 15 5 8 1012.2 1010.4 0.0
16/10:30pm 26.7 24.8 9.1 33 9.9 N 9 15 5 8 1013.3 1011.5 0.0
16/10:00pm 27.2 23.2 9.1 32 10.2 ENE 20 24 11 13 1012.6 1010.7 0.0
16/09:30pm 28.0 25.0 9.3 31 10.6 SW 15 28 8 15 1012.3 1010.5 0.0
16/09:00pm 27.9 25.7 9.2 31 10.6 SW 11 15 6 8 1011.9 1010.1 0.0
16/08:30pm 29.2 24.8 6.6 24 12.3 WSW 19 24 10 13 1011.7 1009.9 0.0
16/08:00pm 29.4 26.5 4.8 21 13.0 W 9 13 5 7 1011.1 1009.2 0.0
16/07:30pm 30.2 27.1 5.5 21 13.3 W 11 13 6 7 1010.6 1008.7 0.0
16/07:00pm 31.5 27.5 5.1 19 14.2 W 15 26 8 14 1010.2 1008.4 0.0
16/06:30pm 32.1 25.0 5.6 19 14.4 W 32 50 17 27 1010.0 1008.2 0.0
16/06:26pm 32.3 25.9 5.0 18 14.7 WNW 28 50 15 27 1010.0 1008.2 0.0
16/06:00pm 33.6 27.8 2.4 14 16.3 NW 22 28 12 15 1009.5 1007.7 0.0
16/05:30pm 34.7 27.4 2.3 13 17.0 NW 30 39 16 21 1009.4 1007.6 0.0
16/05:00pm 34.4 27.0 2.0 13 16.8 NW 30 44 16 24 1009.1 1007.2 0.0
16/04:30pm 35.4 26.7 1.7 12 17.6 NW 37 50 20 27 1009.2 1007.3 0.0
16/04:00pm 34.6 27.6 2.2 13 16.9 NW 28 48 15 26 1009.3 1007.4 0.0
16/03:56pm 35.5 28.7 2.9 13 17.3 NW 28 48 15 26 1009.2 1007.3 0.0
16/03:30pm 34.7 28.9 2.3 13 17.0 NW 22 30 12 16 1009.6 1007.8 0.0
16/03:01pm 35.7 28.3 1.9 12 17.7 NW 30 54 16 29 1009.9 1008.1 0.0
16/03:00pm 35.7 28.7 1.9 12 17.7 NW 28 41 15 22 1010.0 1008.2 0.0
16/02:34pm 34.7 27.0 2.3 13 16.9 NW 32 50 17 27 1010.4 1008.5 0.0
16/02:30pm 35.2 27.4 1.5 12 17.5 NW 32 44 17 24 1010.5 1008.6 0.0
16/02:00pm 35.1 27.5 2.6 13 17.1 WNW 32 46 17 25 1011.0 1009.1 0.0
16/01:30pm 35.2 28.3 2.6 13 17.2 NW 28 43 15 23 1011.4 1009.6 0.0
16/01:00pm 34.7 27.8 2.3 13 16.9 NW 28 41 15 22 1012.0 1010.2 0.0
16/12:30pm 34.4 28.4 0.9 12 17.1 NW 22 44 12 24 1012.8 1010.9 0.0
16/12:00pm 33.6 28.6 1.4 13 16.5 NW 17 28 9 15 1013.4 1011.6 0.0
16/11:30am 31.5 26.3 -0.2 13 15.6 NNW 17 24 9 13 1014.1 1012.3 0.0
16/11:00am 31.1 26.7 0.5 14 15.2 NNW 13 24 7 13 1014.7 1012.8 0.0
16/10:30am 28.6 23.4 0.3 16 13.8 NNW 17 20 9 11 1015.0 1013.2 0.0
16/10:00am 27.4 23.0 0.2 17 13.1 NNW 13 19 7 10 1015.0 1013.2 0.0
16/09:30am 25.1 21.4 -0.1 19 11.9 NNE 9 13 5 7 1015.2 1013.4 0.0
16/09:00am 25.0 21.4 0.5 20 11.7 E 9 13 5 7 1014.9 1013.1 0.0
16/08:30am 23.3 20.1 -0.2 21 10.9 E 6 9 3 5 1015.1 1013.3 0.0
16/08:00am 20.9 16.0 -0.4 24 9.7 W 15 30 8 16 1015.0 1013.2 0.0
16/07:30am 18.7 15.5 -0.2 28 8.4 SSE 6 9 3 5 1013.9 1012.1 0.0
16/07:00am 16.8 13.4 -0.9 30 7.7 SSE 7 9 4 5 1013.5 1011.7 0.0
16/06:30am 17.7 13.9 -0.5 29 8.0 SE 9 15 5 8 1013.2 1011.4 0.0
16/06:00am 17.4 12.8 -0.8 29 7.9 ESE 13 17 7 9 1013.1 1011.3 0.0
16/05:30am 16.8 12.9 -1.3 29 7.8 ESE 9 13 5 7 1013.2 1011.4 0.0
16/05:00am 15.2 11.1 -2.7 29 7.4 SSE 9 13 5 7 1013.3 1011.5 0.0
16/04:30am 16.2 12.2 -2.3 28 7.7 SE 9 13 5 7 1013.4 1011.6 0.0
16/04:00am 15.4 12.7 -2.1 30 7.3 SSE 2 15 1 8 1013.4 1011.6 0.0
16/03:30am 16.6 14.3 -2.5 27 8.0 CALM 0 2 0 1 1013.5 1011.7 0.0
16/03:00am 15.8 12.7 -2.6 28 7.6 SE 4 7 2 4 1013.6 1011.8 0.0
16/02:30am 16.0 13.6 -3.0 27 7.8 CALM 0 0 0 0 1013.8 1012.0 0.0
16/02:00am 16.6 13.5 -3.0 26 8.1 WSW 4 7 2 4 1014.2 1012.4 0.0
16/01:30am 16.7 14.4 -2.4 27 8.0 CALM 0 0 0 0 1014.7 1012.8 0.0
16/01:00am 16.4 13.3 -2.6 27 7.9 S 4 7 2 4 1014.9 1013.1 0.0
16/12:30am 17.8 15.1 -2.5 25 8.6 ENE 2 7 1 4 1014.9 1013.1 0.0
16/12:00am 18.6 16.2 -2.9 23 9.1 CALM 0 0 0 0 1014.9 1013.1 0.0
 
Date/Time
CST
Temp
°C
App
Temp
°C
Dew
Point
°C
Rel
Hum
%
Delta-T
°C
Wind Press
QNH
hPa
Press
MSL
hPa
Rain since
9am
mm
Dir  Spd
km/h
Gust
km/h
Spd
kts
Gust
kts
15/11:30pm 19.2 15.1 -3.0 22 9.4 S 9 13 5 7 1015.0 1013.2 0.0
15/11:00pm 19.6 16.0 -3.3 21 9.7 S 6 7 3 4 1015.3 1013.5 0.0
15/10:30pm 20.9 17.8 -2.9 20 10.3 SE 4 7 2 4 1015.4 1013.6 0.0
15/10:00pm 20.9 17.4 -2.9 20 10.3 E 6 9 3 5 1015.3 1013.5 0.0
15/09:30pm 22.4 18.9 -3.1 18 11.1 SE 6 9 3 5 1015.3 1013.5 0.0
15/09:00pm 21.9 19.6 -2.7 19 10.7 CALM 0 0 0 0 1015.2 1013.4 0.0
15/08:30pm 22.6 19.1 -2.9 18 11.2 SSE 6 6 3 3 1015.1 1013.3 0.0
15/08:00pm 23.5 19.8 -2.9 17 11.7 S 7 9 4 5 1014.8 1012.9 0.0
15/07:30pm 25.5 21.9 -3.9 14 13.0 SW 6 6 3 3 1014.5 1012.7 0.0
15/07:00pm 29.3 25.3 -5.4 10 15.4 WSW 7 9 4 5 1014.4 1012.6 0.0
15/06:30pm 31.4 26.3 -5.2 9 16.5 W 13 19 7 10 1014.1 1012.3 0.0
15/06:00pm 32.7 26.8 -5.8 8 17.4 WSW 17 28 9 15 1014.0 1012.2 0.0
15/05:30pm 33.3 28.0 -3.8 9 17.4 NW 15 22 8 12 1013.9 1012.1 0.0
15/05:00pm 33.4 28.1 -3.7 9 17.4 WNW 15 22 8 12 1013.7 1011.9 0.0
15/04:30pm 32.9 25.4 -4.1 9 17.2 W 26 37 14 20 1013.7 1011.9 0.0
15/04:00pm 33.3 28.5 -2.4 10 17.1 WNW 13 24 7 13 1013.7 1011.9 0.0
15/03:30pm 33.4 27.3 -3.7 9 17.4 WNW 19 30 10 16 1014.1 1012.3 0.0
15/03:00pm 34.2 26.1 -3.2 9 17.8 WNW 30 43 16 23 1014.5 1012.7 0.0
15/02:58pm 33.9 26.1 -3.4 9 17.7 WNW 28 43 15 23 1014.4 1012.6 0.0
15/02:30pm 33.2 26.7 -2.5 10 17.1 W 22 32 12 17 1015.0 1013.2 0.0
15/02:00pm 33.1 27.5 -2.6 10 17.1 WNW 17 24 9 13 1015.7 1013.9 0.0
15/01:30pm 32.5 28.6 -1.7 11 16.5 E 9 13 5 7 1016.2 1014.4 0.0
15/01:00pm 30.8 27.3 -3.0 11 15.8 SSE 6 11 3 6 1016.9 1015.1 0.0
15/12:30pm 30.8 26.8 -1.9 12 15.5 NNE 9 15 5 8 1017.6 1015.8 0.0
15/12:00pm 29.2 25.5 -3.1 12 14.9 W 7 11 4 6 1018.2 1016.4 0.0
15/11:30am 27.7 23.6 -3.2 13 14.0 E 9 20 5 11 1018.7 1017.0 0.0
15/11:00am 27.3 23.6 -2.5 14 13.7 ESE 7 13 4 7 1019.0 1017.2 0.0
15/10:30am 25.0 21.2 -3.4 15 12.6 E 7 15 4 8 1019.2 1017.4 0.0
15/10:00am 23.1 18.9 -4.1 16 11.7 ESE 9 13 5 7 1019.6 1017.8 0.0
15/09:30am 21.8 16.8 -4.3 17 11.0 E 13 19 7 10 1019.7 1017.9 0.0
15/09:00am 20.5 14.7 -4.6 18 10.4 ESE 17 19 9 10 1019.6 1017.8 0.0
15/08:30am 19.1 13.3 -5.0 19 9.8 ESE 17 22 9 12 1019.6 1017.8 0.0
15/08:00am 17.3 11.9 -4.6 22 8.8 ESE 15 22 8 12 1019.3 1017.5 0.0
15/07:30am 15.8 10.8 -4.7 24 8.1 SE 13 19 7 10 1018.7 1017.0 0.0
15/07:00am 14.8 9.4 -4.5 26 7.6 SE 15 17 8 9 1018.3 1016.5 0.0
15/06:30am 15.0 9.6 -4.3 26 7.6 SE 15 19 8 10 1017.9 1016.1 0.0
15/06:00am 15.5 10.1 -4.4 25 7.9 SE 15 19 8 10 1017.4 1015.6 0.0
15/05:30am 15.3 10.7 -4.1 26 7.7 SSE 11 17 6 9 1017.3 1015.5 0.0
15/05:00am 15.0 10.8 -3.8 27 7.5 SSE 9 13 5 7 1016.8 1015.0 0.0
15/04:30am 15.4 10.9 -3.5 27 7.6 SSE 11 13 6 7 1016.4 1014.6 0.0
15/04:00am 16.1 11.6 -3.4 26 8.0 SSE 11 15 6 8 1016.4 1014.6 0.0
15/03:30am 16.9 11.6 -3.8 24 8.4 SE 15 17 8 9 1016.3 1014.5 0.0
15/03:00am 17.7 12.5 -3.1 24 8.7 SE 15 19 8 10 1016.3 1014.5 0.0
15/02:30am 17.3 12.9 -2.4 26 8.3 SSE 11 15 6 8 1016.6 1014.9 0.0
15/02:00am 16.9 12.5 -2.2 27 8.1 S 11 15 6 8 1016.6 1014.9 0.0
15/01:30am 18.3 13.6 -2.0 25 8.7 SE 13 15 7 8 1016.6 1014.9 0.0
15/01:00am 19.5 15.5 -2.2 23 9.4 ESE 9 13 5 7 1016.9 1015.1 0.0
15/12:30am 20.8 16.5 -1.7 22 9.9 SE 11 15 6 8 1017.1 1015.3 0.0
15/12:00am 21.8 17.1 -2.1 20 10.5 ESE 13 17 7 9 1017.3 1015.5 0.0
 
Date/Time
CST
Temp
°C
App
Temp
°C
Dew
Point
°C
Rel
Hum
%
Delta-T
°C
Wind Press
QNH
hPa
Press
MSL
hPa
Rain since
9am
mm
Dir  Spd
km/h
Gust
km/h
Spd
kts
Gust
kts
14/11:30pm 22.3 18.8 -1.1 21 10.6 S 7 11 4 6 1017.3 1015.5 0.0
14/11:00pm 23.7 18.7 -1.3 19 11.4 E 15 24 8 13 1017.2 1015.4 0.0
14/10:30pm 23.4 19.7 -0.1 21 10.9 E 9 19 5 10 1017.1 1015.3 0.0
14/10:00pm 25.2 19.4 0.0 19 11.9 E 20 28 11 15 1016.6 1014.9 0.0
14/09:30pm 25.8 21.0 0.5 19 12.1 E 15 28 8 15 1016.6 1014.9 0.0
14/09:00pm 26.1 20.2 1.4 20 12.0 ESE 22 33 12 18 1016.3 1014.5 0.0
14/08:30pm 23.5 20.8 0.6 22 10.8 W 4 7 2 4 1015.9 1014.1 0.0
14/08:00pm 25.3 22.3 0.8 20 11.8 NW 6 7 3 4 1015.5 1013.7 0.0
14/07:30pm 27.9 24.3 0.6 17 13.3 NW 9 11 5 6 1015.1 1013.3 0.0
14/07:00pm 29.4 25.3 0.1 15 14.3 WNW 11 15 6 8 1014.7 1012.8 0.0
14/06:30pm 30.7 27.3 2.0 16 14.6 W 9 13 5 7 1014.3 1012.5 0.0
14/06:00pm 31.6 27.8 1.8 15 15.2 W 11 17 6 9 1014.1 1012.3 0.0
14/05:30pm 31.1 26.5 1.4 15 15.0 NNW 15 20 8 11 1014.0 1012.2 0.0
14/05:00pm 31.3 26.0 1.6 15 15.0 NW 19 30 10 16 1014.1 1012.3 0.0
14/04:30pm 31.6 26.1 0.9 14 15.4 WNW 19 32 10 17 1014.2 1012.4 0.0
14/04:00pm 31.7 26.1 1.0 14 15.4 W 20 35 11 19 1014.4 1012.6 0.0
14/03:30pm 31.1 25.4 0.5 14 15.2 NW 20 30 11 16 1014.9 1013.1 0.0
14/03:00pm 30.1 25.4 0.6 15 14.6 N 15 28 8 15 1015.3 1013.5 0.0
14/02:30pm 29.0 25.4 0.7 16 13.9 NNW 9 20 5 11 1015.7 1013.9 0.0
14/02:00pm 28.8 24.9 1.3 17 13.6 NW 11 19 6 10 1016.3 1014.5 0.0
14/01:30pm 28.0 24.8 0.7 17 13.3 NE 7 20 4 11 1016.8 1015.0 0.0
14/01:00pm 26.1 21.5 -0.8 17 12.6 ENE 13 19 7 10 1017.5 1015.7 0.0
14/12:30pm 25.3 20.7 -0.7 18 12.1 NE 13 22 7 12 1018.1 1016.3 0.0

Other formats

Comma delimited format used in spreadsheet applications
http://www.bom.gov.au/fwo/IDD60801/IDD60801.94462.axf

JavaScript Object Notation format (JSON) in row-major order
http://www.bom.gov.au/fwo/IDD60801/IDD60801.94462.json

Data quality

Most of these data are generated automatically and are frequently updated. Quality checks on data are not normally performed. It is possible for incorrect values to appear. Refer to information at About Latest Weather Observations and please check the disclaimer before using these data.